createdAt,value
2022-07-30T00:01:52.550Z,91.23
2022-07-30T00:04:19.255Z,91.59
2022-07-30T00:06:45.872Z,91.60
2022-07-30T00:09:12.510Z,91.90
2022-07-30T00:11:39.076Z,92.10
2022-07-30T00:14:05.919Z,92.04
2022-07-30T00:16:32.637Z,91.90
2022-07-30T00:18:59.771Z,92.07
2022-07-30T00:21:36.403Z,91.63
2022-07-30T00:24:07.104Z,91.33
2022-07-30T00:26:33.678Z,90.92
2022-07-30T00:29:00.619Z,90.63
2022-07-30T00:31:28.964Z,90.48
2022-07-30T00:33:55.589Z,90.53
2022-07-30T00:36:22.591Z,90.31
2022-07-30T00:38:49.413Z,90.01
2022-07-30T00:41:16.378Z,89.91
2022-07-30T00:43:43.761Z,90.07
2022-07-30T00:46:10.487Z,89.72
2022-07-30T00:48:37.318Z,89.39
2022-07-30T00:51:04.076Z,89.13
2022-07-30T00:53:30.829Z,89.30
2022-07-30T00:55:57.675Z,89.14
2022-07-30T00:58:24.420Z,89.17
2022-07-30T01:00:51.427Z,89.31
2022-07-30T01:03:18.091Z,88.65
2022-07-30T01:05:45.352Z,88.69
2022-07-30T01:08:11.986Z,88.24
2022-07-30T01:10:38.641Z,88.19
2022-07-30T01:13:06.578Z,87.94
2022-07-30T01:15:34.495Z,88.10
2022-07-30T01:18:05.328Z,87.95
2022-07-30T01:20:41.070Z,87.80
2022-07-30T01:23:19.597Z,87.83
2022-07-30T01:25:48.802Z,87.92
2022-07-30T01:28:20.885Z,88.04
2022-07-30T01:30:50.098Z,88.06
2022-07-30T01:33:20.206Z,88.09
2022-07-30T01:35:50.529Z,87.94
2022-07-30T01:38:21.825Z,87.80
2022-07-30T01:40:51.208Z,87.89
2022-07-30T01:43:19.991Z,87.62
2022-07-30T01:45:48.513Z,87.33
2022-07-30T01:48:19.937Z,87.22
2022-07-30T01:50:50.415Z,87.53
2022-07-30T01:53:19.159Z,87.74
2022-07-30T01:55:46.740Z,88.17
2022-07-30T01:58:16.583Z,88.30
2022-07-30T02:00:48.057Z,88.36
2022-07-30T02:03:14.833Z,88.66
2022-07-30T02:05:50.417Z,89.01
2022-07-30T02:08:25.976Z,89.29
2022-07-30T02:11:04.608Z,88.71
2022-07-30T02:13:34.159Z,88.80
2022-07-30T02:16:15.146Z,88.65
2022-07-30T02:18:58.565Z,88.80
2022-07-30T02:21:36.700Z,88.84
2022-07-30T02:24:08.305Z,88.94
2022-07-30T02:26:37.074Z,88.83
2022-07-30T02:29:09.567Z,88.83
2022-07-30T02:31:40.516Z,88.71
2022-07-30T02:34:09.087Z,89.23
2022-07-30T02:36:37.753Z,89.23
2022-07-30T02:39:05.679Z,89.29
2022-07-30T02:41:33.341Z,89.36
2022-07-30T02:44:00.835Z,89.55
2022-07-30T02:46:28.921Z,89.45
2022-07-30T02:49:33.405Z,89.54
2022-07-30T02:52:02.809Z,90.11
2022-07-30T02:54:31.489Z,90.17
2022-07-30T02:57:00.895Z,90.24
2022-07-30T02:59:31.523Z,90.44
2022-07-30T03:01:59.500Z,90.53
2022-07-30T03:04:27.857Z,90.65
2022-07-30T03:06:55.683Z,90.70
2022-07-30T03:09:22.784Z,90.69
2022-07-30T03:11:53.735Z,90.99
2022-07-30T03:14:20.752Z,91.00
2022-07-30T03:16:54.202Z,90.76
2022-07-30T03:19:24.925Z,91.03
2022-07-30T03:21:56.205Z,90.96
2022-07-30T03:24:24.630Z,90.96
2022-07-30T03:26:54.177Z,91.04
2022-07-30T03:29:24.198Z,91.13
2022-07-30T03:31:51.724Z,91.29
2022-07-30T03:34:21.201Z,91.31
2022-07-30T03:36:50.155Z,91.28
2022-07-30T03:39:18.401Z,91.58
2022-07-30T03:41:46.796Z,91.35
2022-07-30T03:44:16.005Z,91.34
2022-07-30T03:46:43.565Z,90.98
2022-07-30T03:49:12.033Z,91.20
2022-07-30T03:51:43.792Z,91.20
2022-07-30T03:54:13.814Z,91.09
2022-07-30T03:56:41.090Z,91.15
2022-07-30T03:59:13.075Z,90.98
2022-07-30T04:01:40.898Z,91.21
2022-07-30T04:04:16.202Z,91.25
2022-07-30T04:06:43.186Z,91.39
2022-07-30T04:09:11.791Z,91.35
2022-07-30T04:11:41.379Z,91.16
2022-07-30T04:14:15.928Z,91.08
2022-07-30T04:17:03.789Z,91.23
2022-07-30T04:19:44.663Z,91.37
2022-07-30T04:22:13.478Z,91.21
2022-07-30T04:24:40.742Z,91.58
2022-07-30T04:27:07.896Z,91.58
2022-07-30T04:29:34.792Z,91.67
2022-07-30T04:32:01.747Z,91.63
2022-07-30T04:34:55.802Z,91.61
2022-07-30T04:37:57.780Z,91.33
2022-07-30T04:40:25.130Z,91.25
2022-07-30T04:42:51.847Z,91.50
2022-07-30T04:45:20.283Z,91.36
2022-07-30T04:47:58.127Z,91.14
2022-07-30T04:51:01.768Z,90.97
2022-07-30T04:53:29.644Z,90.97
2022-07-30T04:56:01.326Z,90.75
2022-07-30T04:58:30.112Z,90.85
2022-07-30T05:00:58.121Z,90.70
2022-07-30T05:03:30.165Z,90.85
2022-07-30T05:05:58.599Z,90.70
2022-07-30T05:08:29.821Z,90.22
2022-07-30T05:11:00.198Z,90.24
2022-07-30T05:13:34.524Z,89.93
2022-07-30T05:16:07.140Z,89.55
2022-07-30T05:18:35.268Z,89.24
2022-07-30T05:21:01.982Z,89.01
2022-07-30T05:23:31.837Z,88.70
2022-07-30T05:26:27.528Z,88.22
2022-07-30T05:28:56.947Z,88.02
2022-07-30T05:31:53.433Z,86.41
2022-07-30T05:34:20.952Z,86.05
2022-07-30T05:36:47.645Z,86.05
2022-07-30T05:39:17.012Z,85.40
2022-07-30T05:41:52.749Z,85.25
2022-07-30T05:44:42.675Z,84.69
2022-07-30T05:47:09.280Z,84.64
2022-07-30T05:49:37.964Z,84.56
2022-07-30T05:52:08.602Z,84.44
2022-07-30T05:54:35.442Z,84.37
2022-07-30T05:57:37.357Z,83.49
2022-07-30T06:00:07.582Z,83.32
2022-07-30T06:02:43.559Z,83.09
2022-07-30T06:05:19.790Z,82.97
2022-07-30T06:07:46.861Z,82.37
2022-07-30T06:10:14.547Z,82.29
2022-07-30T06:12:42.418Z,82.13
2022-07-30T06:15:11.112Z,81.88
2022-07-30T06:17:57.205Z,81.88
2022-07-30T06:20:40.231Z,80.91
2022-07-30T06:23:14.657Z,80.35
2022-07-30T06:26:07.494Z,80.31
2022-07-30T06:28:38.206Z,79.11
2022-07-30T06:31:13.717Z,78.14
2022-07-30T06:33:40.421Z,77.11
2022-07-30T06:36:07.238Z,77.46
2022-07-30T06:38:45.841Z,77.26
2022-07-30T06:41:15.861Z,77.19
2022-07-30T06:43:53.111Z,76.93
2022-07-30T06:46:42.547Z,76.78
2022-07-30T06:49:13.005Z,76.25
2022-07-30T06:51:39.677Z,74.90
2022-07-30T06:54:06.580Z,74.98
2022-07-30T06:56:33.183Z,74.56
2022-07-30T06:59:03.973Z,73.97
2022-07-30T07:01:49.719Z,73.67
2022-07-30T07:04:16.750Z,73.23
2022-07-30T07:06:44.118Z,72.47
2022-07-30T07:09:15.110Z,72.75
2022-07-30T07:11:48.306Z,72.04
2022-07-30T07:14:18.072Z,72.28
2022-07-30T07:16:44.896Z,70.49
2022-07-30T07:19:59.918Z,71.45
2022-07-30T07:22:32.194Z,71.34
2022-07-30T07:24:58.822Z,71.92
2022-07-30T07:27:28.804Z,71.95
2022-07-30T07:30:04.392Z,71.69
2022-07-30T07:32:35.245Z,71.03
2022-07-30T07:35:02.793Z,70.69
2022-07-30T07:37:30.289Z,70.90
2022-07-30T07:39:57.204Z,69.99
2022-07-30T07:42:24.086Z,70.06
2022-07-30T07:44:52.486Z,69.74
2022-07-30T07:47:19.231Z,69.08
2022-07-30T07:50:00.596Z,68.26
2022-07-30T07:52:27.213Z,68.70
2022-07-30T07:54:54.664Z,68.31
2022-07-30T07:57:21.991Z,68.39
2022-07-30T07:59:48.887Z,65.64
2022-07-30T08:02:25.851Z,65.62
2022-07-30T08:04:58.561Z,65.11
2022-07-30T08:07:43.149Z,64.82
2022-07-30T08:10:15.048Z,63.79
2022-07-30T08:12:59.949Z,62.83
2022-07-30T08:15:52.468Z,62.21
2022-07-30T08:18:54.097Z,63.40
2022-07-30T08:21:40.911Z,63.15
2022-07-30T08:24:08.854Z,62.85
2022-07-30T08:26:35.512Z,61.49
2022-07-30T08:29:02.380Z,60.91
2022-07-30T08:31:29.001Z,61.48
2022-07-30T08:33:55.629Z,61.67
2022-07-30T08:36:25.987Z,60.01
2022-07-30T08:38:53.668Z,58.46
2022-07-30T08:41:21.193Z,58.44
2022-07-30T08:43:50.933Z,58.72
2022-07-30T08:46:24.455Z,58.52
2022-07-30T08:49:00.561Z,57.68
2022-07-30T08:51:35.570Z,56.94
2022-07-30T08:54:27.103Z,56.39
2022-07-30T08:56:54.503Z,56.23
2022-07-30T08:59:23.693Z,55.77
2022-07-30T09:01:52.041Z,55.09
2022-07-30T09:04:18.955Z,55.33
2022-07-30T09:06:47.036Z,55.60
2022-07-30T09:09:14.949Z,54.16
2022-07-30T09:11:41.589Z,53.89
2022-07-30T09:14:13.811Z,53.93
2022-07-30T09:16:44.341Z,52.72
2022-07-30T09:19:20.503Z,52.68
2022-07-30T09:22:00.744Z,51.51
2022-07-30T09:24:56.157Z,51.01
2022-07-30T09:27:49.794Z,50.14
2022-07-30T09:30:48.657Z,50.90
2022-07-30T09:33:47.944Z,50.03
2022-07-30T09:36:35.601Z,49.50
2022-07-30T09:39:36.802Z,49.74
2022-07-30T09:42:17.741Z,49.72
2022-07-30T09:44:45.469Z,49.42
2022-07-30T09:47:36.957Z,47.73
2022-07-30T09:50:11.398Z,47.50
2022-07-30T09:52:43.849Z,47.59
2022-07-30T09:55:13.321Z,47.20
2022-07-30T09:58:01.579Z,45.69
2022-07-30T10:00:30.637Z,46.14
2022-07-30T10:03:42.568Z,46.04
2022-07-30T10:06:37.995Z,46.26
2022-07-30T10:09:30.946Z,45.83
2022-07-30T10:12:02.561Z,44.74
2022-07-30T10:14:34.192Z,45.05
2022-07-30T10:17:09.508Z,43.95
2022-07-30T10:19:39.955Z,43.91
2022-07-30T10:22:27.500Z,44.07
2022-07-30T10:25:18.781Z,43.49
2022-07-30T10:28:15.434Z,44.46
2022-07-30T10:30:43.634Z,44.35
2022-07-30T10:33:34.207Z,43.88
2022-07-30T10:35:59.109Z,43.42
2022-07-30T10:38:30.301Z,43.73
2022-07-30T10:41:08.116Z,42.94
2022-07-30T10:44:12.016Z,42.75
2022-07-30T10:47:07.941Z,42.63
2022-07-30T10:49:41.338Z,42.34
2022-07-30T10:52:10.383Z,41.79
2022-07-30T10:54:42.463Z,41.44
2022-07-30T10:57:14.963Z,42.14
2022-07-30T10:59:52.457Z,42.95
2022-07-30T11:02:20.350Z,42.53
2022-07-30T11:04:47.814Z,40.42
2022-07-30T11:07:29.521Z,40.07
2022-07-30T11:10:04.301Z,41.29
2022-07-30T11:12:45.659Z,41.56
2022-07-30T11:15:18.729Z,41.39
2022-07-30T11:18:01.198Z,41.39
2022-07-30T11:20:30.671Z,42.54
2022-07-30T11:23:29.088Z,42.74
2022-07-30T11:26:02.076Z,41.46
2022-07-30T11:28:43.470Z,41.29
2022-07-30T11:31:36.904Z,40.95
2022-07-30T11:34:20.028Z,40.02
2022-07-30T11:37:18.056Z,39.75
2022-07-30T11:39:54.581Z,40.32
2022-07-30T11:42:33.042Z,40.95
2022-07-30T11:45:23.041Z,40.95
2022-07-30T11:47:57.990Z,40.99
2022-07-30T11:50:33.283Z,41.35
2022-07-30T11:53:06.188Z,40.60
2022-07-30T11:55:35.709Z,40.96
2022-07-30T11:58:05.976Z,40.75
2022-07-30T12:00:40.659Z,41.71
2022-07-30T12:03:15.412Z,41.42
2022-07-30T12:05:43.562Z,41.88
2022-07-30T12:08:35.230Z,40.88
2022-07-30T12:11:01.575Z,40.42
2022-07-30T12:13:43.927Z,40.01
2022-07-30T12:16:14.273Z,40.14
2022-07-30T12:18:40.901Z,39.87
2022-07-30T12:21:12.078Z,39.95
2022-07-30T12:23:39.119Z,40.10
2022-07-30T12:26:05.973Z,40.07
2022-07-30T12:28:34.451Z,40.31
2022-07-30T12:31:04.606Z,40.58
2022-07-30T12:33:31.422Z,40.54
2022-07-30T12:36:00.647Z,40.04
2022-07-30T12:38:28.588Z,40.05
2022-07-30T12:41:04.944Z,39.88
2022-07-30T12:43:49.841Z,39.97
2022-07-30T12:46:27.310Z,40.30
2022-07-30T12:49:21.109Z,39.70
2022-07-30T12:51:59.696Z,39.55
2022-07-30T12:54:27.483Z,40.36
2022-07-30T12:57:03.287Z,39.60
2022-07-30T12:59:31.641Z,40.51
2022-07-30T13:02:00.631Z,40.09
2022-07-30T13:04:28.099Z,40.22
2022-07-30T13:07:08.144Z,40.47
2022-07-30T13:09:35.187Z,40.85
2022-07-30T13:12:01.928Z,40.23
2022-07-30T13:14:28.665Z,39.18
2022-07-30T13:16:58.273Z,39.21
2022-07-30T13:19:26.430Z,39.09
2022-07-30T13:21:53.090Z,39.07
2022-07-30T13:24:20.068Z,39.06
2022-07-30T13:26:47.066Z,39.41
2022-07-30T13:29:13.820Z,39.80
2022-07-30T13:31:43.015Z,39.85
2022-07-30T13:34:11.390Z,39.69
2022-07-30T13:36:38.135Z,38.99
2022-07-30T13:39:04.765Z,38.25
2022-07-30T13:41:31.466Z,36.91
2022-07-30T13:43:58.052Z,36.67
2022-07-30T13:46:24.699Z,37.32
2022-07-30T13:48:51.380Z,37.08
2022-07-30T13:51:18.746Z,36.89
2022-07-30T13:53:45.572Z,35.68
2022-07-30T13:56:12.661Z,34.43
2022-07-30T13:58:40.217Z,34.50
2022-07-30T14:01:09.451Z,34.45
2022-07-30T14:03:47.098Z,34.15
2022-07-30T14:06:16.293Z,34.41
2022-07-30T14:08:42.886Z,33.71
2022-07-30T14:11:09.503Z,32.94
2022-07-30T14:13:36.105Z,32.98
2022-07-30T14:16:02.722Z,31.05
2022-07-30T14:18:29.892Z,30.15
2022-07-30T14:20:56.502Z,30.26
2022-07-30T14:23:23.432Z,29.94
2022-07-30T14:25:50.209Z,29.96
2022-07-30T14:28:16.811Z,30.63
2022-07-30T14:30:43.757Z,31.83
2022-07-30T14:33:10.706Z,31.57
2022-07-30T14:35:37.390Z,32.08
2022-07-30T14:38:04.420Z,31.94
2022-07-30T14:40:32.459Z,31.58
2022-07-30T14:42:59.492Z,30.63
2022-07-30T14:45:26.279Z,30.35
2022-07-30T14:47:56.376Z,30.53
2022-07-30T14:50:23.123Z,30.20
2022-07-30T14:52:50.493Z,30.79
2022-07-30T14:55:17.445Z,29.56
2022-07-30T14:57:44.348Z,30.57
2022-07-30T15:00:11.973Z,32.03
2022-07-30T15:02:38.907Z,32.87
2022-07-30T15:05:06.160Z,33.25
2022-07-30T15:07:34.605Z,32.71
2022-07-30T15:10:02.579Z,32.14
2022-07-30T15:12:29.273Z,31.79
2022-07-30T15:14:55.937Z,32.24
2022-07-30T15:17:22.586Z,32.19
2022-07-30T15:19:51.128Z,31.15
2022-07-30T15:22:21.108Z,31.90
2022-07-30T15:24:48.742Z,31.83
2022-07-30T15:27:15.614Z,32.11
2022-07-30T15:29:42.266Z,32.25
2022-07-30T15:32:08.991Z,32.86
2022-07-30T15:34:35.742Z,32.65
2022-07-30T15:37:03.311Z,31.52
2022-07-30T15:39:32.378Z,31.81
2022-07-30T15:42:00.622Z,31.58
2022-07-30T15:44:27.748Z,31.74
2022-07-30T15:46:54.975Z,32.39
2022-07-30T15:49:21.674Z,31.86
2022-07-30T15:51:51.854Z,32.68
2022-07-30T15:54:23.322Z,32.13
2022-07-30T15:56:51.133Z,31.75
2022-07-30T15:59:18.093Z,31.65
2022-07-30T16:01:45.156Z,31.46
2022-07-30T16:04:19.061Z,31.52
2022-07-30T16:06:48.213Z,31.03
2022-07-30T16:09:16.249Z,30.82
2022-07-30T16:11:43.137Z,30.76
2022-07-30T16:14:10.407Z,30.99
2022-07-30T16:16:37.493Z,31.08
2022-07-30T16:19:04.438Z,30.74
2022-07-30T16:21:31.107Z,31.09
2022-07-30T16:23:57.713Z,30.90
2022-07-30T16:26:24.490Z,31.48
2022-07-30T16:28:51.197Z,32.19
2022-07-30T16:31:17.922Z,33.14
2022-07-30T16:33:44.589Z,33.49
2022-07-30T16:36:11.552Z,33.98
2022-07-30T16:38:38.231Z,34.76
2022-07-30T16:41:04.883Z,35.23
2022-07-30T16:43:32.080Z,35.50
2022-07-30T16:46:00.030Z,36.15
2022-07-30T16:48:26.694Z,36.11
2022-07-30T16:50:53.727Z,36.35
2022-07-30T16:53:20.840Z,35.95
2022-07-30T16:55:47.703Z,35.77
2022-07-30T16:58:14.476Z,34.69
2022-07-30T17:00:41.251Z,33.83
2022-07-30T17:03:08.241Z,33.80
2022-07-30T17:05:35.030Z,33.46
2022-07-30T17:08:04.684Z,33.87
2022-07-30T17:10:31.436Z,33.41
2022-07-30T17:12:58.205Z,33.78
2022-07-30T17:15:32.770Z,34.21
2022-07-30T17:18:03.518Z,34.27
2022-07-30T17:20:31.445Z,33.66
2022-07-30T17:22:58.044Z,33.70
2022-07-30T17:25:28.317Z,33.61
2022-07-30T17:27:57.041Z,33.42
2022-07-30T17:30:24.297Z,33.31
2022-07-30T17:32:51.040Z,33.62
2022-07-30T17:35:17.821Z,33.38
2022-07-30T17:37:44.475Z,33.70
2022-07-30T17:40:29.439Z,33.59
2022-07-30T17:43:04.915Z,34.48
2022-07-30T17:45:35.975Z,34.91
2022-07-30T17:48:04.328Z,35.61
2022-07-30T17:50:32.445Z,36.09
2022-07-30T17:52:59.728Z,37.02
2022-07-30T17:55:28.153Z,37.22
2022-07-30T17:57:55.142Z,37.42
2022-07-30T18:00:22.978Z,38.12
2022-07-30T18:02:49.556Z,38.21
2022-07-30T18:05:16.305Z,38.52
2022-07-30T18:07:44.106Z,37.30
2022-07-30T18:10:11.801Z,37.73
2022-07-30T18:12:39.051Z,38.23
2022-07-30T18:15:15.696Z,39.42
2022-07-30T18:17:42.315Z,39.63
2022-07-30T18:20:09.568Z,40.20
2022-07-30T18:22:36.191Z,40.58
2022-07-30T18:25:03.196Z,41.60
2022-07-30T18:27:34.396Z,42.31
2022-07-30T18:30:01.055Z,42.74
2022-07-30T18:32:27.751Z,43.02
2022-07-30T18:34:54.698Z,43.27
2022-07-30T18:37:21.364Z,43.73
2022-07-30T18:39:48.059Z,43.71
2022-07-30T18:42:14.771Z,44.16
2022-07-30T18:44:41.416Z,44.52
2022-07-30T18:47:08.015Z,44.61
2022-07-30T18:49:37.172Z,44.78
2022-07-30T18:52:06.077Z,44.91
2022-07-30T18:54:33.085Z,45.00
2022-07-30T18:56:59.680Z,45.08
2022-07-30T18:59:26.302Z,45.09
2022-07-30T19:01:52.905Z,45.45
2022-07-30T19:04:19.778Z,45.70
2022-07-30T19:06:46.367Z,45.77
2022-07-30T19:09:16.847Z,45.81
2022-07-30T19:11:45.790Z,45.83
2022-07-30T19:14:13.277Z,46.22
2022-07-30T19:16:41.811Z,46.77
2022-07-30T19:19:09.288Z,47.04
2022-07-30T19:21:35.917Z,47.42
2022-07-30T19:24:02.620Z,47.64
2022-07-30T19:26:30.404Z,48.16
2022-07-30T19:28:56.983Z,47.92
2022-07-30T19:31:23.584Z,48.29
2022-07-30T19:33:50.831Z,48.69
2022-07-30T19:36:20.722Z,48.66
2022-07-30T19:38:48.926Z,49.01
2022-07-30T19:41:16.528Z,49.45
2022-07-30T19:43:43.337Z,49.57
2022-07-30T19:46:24.481Z,50.10
2022-07-30T19:48:51.175Z,50.43
2022-07-30T19:51:21.027Z,51.01
2022-07-30T19:53:52.220Z,51.35
2022-07-30T19:59:14.560Z,51.94
2022-07-30T20:01:43.034Z,52.18
2022-07-30T20:04:11.175Z,52.41
2022-07-30T20:06:38.534Z,52.78
2022-07-30T20:09:05.164Z,52.86
2022-07-30T20:11:40.853Z,53.71
2022-07-30T20:14:10.379Z,53.87
2022-07-30T20:16:37.398Z,54.76
2022-07-30T20:19:05.035Z,54.80
2022-07-30T20:21:57.141Z,55.45
2022-07-30T20:24:20.248Z,55.68
2022-07-30T20:26:47.613Z,56.24
2022-07-30T20:32:01.009Z,57.26
2022-07-30T20:34:30.714Z,57.49
2022-07-30T20:36:59.092Z,57.92
2022-07-30T20:39:41.696Z,58.32
2022-07-30T20:42:08.300Z,58.21
2022-07-30T20:44:40.807Z,58.79
2022-07-30T20:47:11.169Z,59.11
2022-07-30T20:49:39.107Z,59.20
2022-07-30T20:52:07.268Z,59.90
2022-07-30T20:54:34.148Z,59.83
2022-07-30T20:57:00.818Z,60.16
2022-07-30T20:59:27.646Z,60.02
2022-07-30T21:01:55.824Z,60.54
2022-07-30T21:04:25.254Z,60.53
2022-07-30T21:06:52.527Z,60.61
2022-07-30T21:09:20.212Z,60.98
2022-07-30T21:11:50.645Z,60.91
2022-07-30T21:14:18.642Z,60.94
2022-07-30T21:16:46.617Z,61.24
2022-07-30T21:19:19.113Z,61.27
2022-07-30T21:21:50.232Z,61.44
2022-07-30T21:24:19.752Z,61.57
2022-07-30T21:26:51.226Z,61.90
2022-07-30T21:29:18.978Z,61.99
2022-07-30T21:34:40.389Z,63.03
2022-07-30T21:37:09.132Z,63.12
2022-07-30T21:39:39.777Z,63.63
2022-07-30T21:42:06.939Z,63.10
2022-07-30T21:44:33.538Z,63.48
2022-07-30T21:47:00.206Z,63.43
2022-07-30T21:49:27.948Z,63.39
2022-07-30T21:51:58.607Z,63.37
2022-07-30T21:54:29.174Z,63.39
2022-07-30T21:56:58.317Z,63.40
2022-07-30T21:59:25.237Z,62.88
2022-07-30T22:01:55.209Z,63.00
2022-07-30T22:04:22.242Z,62.79
2022-07-30T22:06:48.853Z,63.21
2022-07-30T22:09:18.823Z,63.23
2022-07-30T22:11:53.951Z,63.77
2022-07-30T22:14:20.586Z,63.63
2022-07-30T22:16:47.556Z,63.65
2022-07-30T22:19:15.261Z,63.54
2022-07-30T22:21:46.531Z,63.37
2022-07-30T22:24:28.992Z,63.61
2022-07-30T22:27:14.640Z,63.62
2022-07-30T22:29:43.289Z,63.71
2022-07-30T22:32:11.506Z,63.74
2022-07-30T22:34:38.166Z,63.88
2022-07-30T22:37:04.740Z,64.13
2022-07-30T22:39:51.021Z,64.29
2022-07-30T22:42:20.112Z,64.79
2022-07-30T22:44:47.453Z,64.72
2022-07-30T22:47:18.695Z,64.64
2022-07-30T22:49:49.672Z,64.80
2022-07-30T22:52:24.213Z,64.42
2022-07-30T22:54:53.253Z,64.42
2022-07-30T22:57:23.468Z,64.17
2022-07-30T22:59:57.996Z,64.38
2022-07-30T23:02:25.711Z,64.74
2022-07-30T23:04:54.739Z,65.13
2022-07-30T23:07:23.374Z,65.34
2022-07-30T23:09:51.826Z,65.49
2022-07-30T23:12:17.077Z,51.59
2022-07-30T23:12:18.142Z,56.90
2022-07-30T23:12:20.271Z,66.09
2022-07-30T23:12:27.407Z,62.36
2022-07-30T23:14:47.747Z,66.01
2022-07-30T23:17:14.692Z,66.20
2022-07-30T23:19:41.283Z,66.52
2022-07-30T23:22:07.926Z,66.37
2022-07-30T23:24:34.582Z,66.67
2022-07-30T23:27:02.288Z,67.00
2022-07-30T23:29:29.186Z,67.01
2022-07-30T23:31:55.961Z,67.06
2022-07-30T23:34:22.924Z,67.60
2022-07-30T23:36:49.740Z,67.53
2022-07-30T23:39:16.459Z,67.66
2022-07-30T23:41:43.719Z,67.93
2022-07-30T23:44:10.333Z,68.11
2022-07-30T23:46:37.187Z,68.53
2022-07-30T23:49:05.062Z,68.49
2022-07-30T23:51:33.490Z,68.76
2022-07-30T23:54:01.107Z,69.02
2022-07-30T23:56:27.745Z,69.14
2022-07-30T23:58:54.699Z,69.40
